Time;durP1;ratioP1;P1;durP2;ratioP2;P2;SDS_P1;SDS_P2;PMS_P1;PMS_P2;Temp;Humidity;BMP_temperature;BMP_pressure;BME280_temperature;BME280_humidity;BME280_pressure;Samples;Min_cycle;Max_cycle;Signal;HPM_P1;HPM_P2
2023/04/26 00:02:17;;;;;;;8.18;5.00;;;;;;;;;;5026086;28;20033;-62
2023/04/26 00:04:42;;;;;;;7.00;4.60;;;;;;;;;;5026524;28;20025;-62
2023/04/26 00:07:07;;;;;;;13.07;4.20;;;;;;;;;;5026056;28;20116;-60
2023/04/26 00:09:33;;;;;;;6.93;4.45;;;;;;;;;;5026138;28;20033;-62
2023/04/26 00:11:58;;;;;;;8.05;4.80;;;;;;;;;;5025541;28;20048;-61
2023/04/26 00:14:24;;;;;;;10.27;5.35;;;;;;;;;;5026037;28;20056;-62
2023/04/26 00:16:49;;;;;;;7.75;4.93;;;;;;;;;;5025686;28;20501;-59
2023/04/26 00:19:15;;;;;;;6.20;4.43;;;;;;;;;;5025456;28;20028;-63
2023/04/26 00:21:40;;;;;;;8.27;4.70;;;;;;;;;;5025749;28;20480;-61
2023/04/26 00:24:06;;;;;;;7.13;4.53;;;;;;;;;;5025417;28;20041;-61
2023/04/26 00:26:33;;;;;;;7.82;4.60;;;;;;;;;;5025846;28;20016;-61
2023/04/26 00:28:58;;;;;;;6.35;4.30;;;;;;;;;;5025707;28;20025;-62
2023/04/26 00:31:24;;;;;;;8.07;4.32;;;;;;;;;;5025685;28;20087;-62
2023/04/26 00:33:50;;;;;;;8.57;4.82;;;;;;;;;;5025533;28;20291;-61
2023/04/26 00:36:18;;;;;;;9.00;4.82;;;;;;;;;;5025664;28;20076;-61
2023/04/26 00:38:43;;;;;;;6.13;3.85;;;;;;;;;;5025284;28;20049;-62
2023/04/26 00:41:08;;;;;;;7.43;4.95;;;;;;;;;;5025453;28;20021;-62
2023/04/26 00:43:34;;;;;;;8.43;4.57;;;;;;;;;;5024342;28;20033;-61
2023/04/26 00:45:59;;;;;;;8.57;4.63;;;;;;;;;;5025473;28;20639;-63
2023/04/26 00:48:25;;;;;;;10.13;4.45;;;;;;;;;;5025611;28;20025;-62
2023/04/26 00:50:50;;;;;;;9.13;4.22;;;;;;;;;;5025148;28;20021;-62
2023/04/26 00:53:16;;;;;;;8.82;4.57;;;;;;;;;;5025380;28;20385;-59
2023/04/26 00:55:42;;;;;;;7.95;4.88;;;;;;;;;;5038946;28;20481;-62
2023/04/26 00:58:07;;;;;;;5.82;4.35;;;;;;;;;;5024914;28;20033;-62
2023/04/26 01:00:32;;;;;;;7.40;4.80;;;;;;;;;;5024856;28;20088;-63
2023/04/26 01:02:58;;;;;;;7.45;4.47;;;;;;;;;;5025476;28;20090;-62
2023/04/26 01:05:23;;;;;;;7.80;4.72;;;;;;;;;;5025053;28;20081;-61
2023/04/26 01:07:49;;;;;;;8.20;4.88;;;;;;;;;;5025119;28;20019;-59
2023/04/26 01:10:15;;;;;;;9.65;4.53;;;;;;;;;;5023701;28;20025;-62
2023/04/26 01:12:40;;;;;;;7.72;4.90;;;;;;;;;;5055587;28;20040;-62
2023/04/26 01:15:06;;;;;;;6.50;4.90;;;;;;;;;;5024820;28;20032;-61
2023/04/26 01:17:31;;;;;;;6.90;4.47;;;;;;;;;;5024629;28;20029;-62
2023/04/26 01:19:57;;;;;;;7.10;4.63;;;;;;;;;;5024818;28;20065;-62
2023/04/26 01:22:22;;;;;;;7.20;4.40;;;;;;;;;;5024950;28;20520;-62
2023/04/26 01:24:48;;;;;;;6.97;4.82;;;;;;;;;;5024508;28;20109;-62
2023/04/26 01:27:15;;;;;;;7.63;4.60;;;;;;;;;;5024307;28;20493;-62
2023/04/26 01:29:40;;;;;;;7.22;5.32;;;;;;;;;;5024855;28;20509;-62
2023/04/26 01:32:06;;;;;;;8.90;4.88;;;;;;;;;;5024752;28;20056;-62
2023/04/26 01:34:33;;;;;;;8.15;4.90;;;;;;;;;;5023350;28;20366;-61
2023/04/26 01:36:59;;;;;;;7.15;5.05;;;;;;;;;;5023107;28;20496;-63
2023/04/26 01:39:25;;;;;;;7.43;4.90;;;;;;;;;;5023101;28;20484;-62
2023/04/26 01:41:50;;;;;;;7.60;5.15;;;;;;;;;;5024552;28;20086;-63
2023/04/26 01:44:16;;;;;;;8.13;4.97;;;;;;;;;;5024070;28;20393;-62
2023/04/26 01:46:41;;;;;;;7.70;5.13;;;;;;;;;;5024749;28;20037;-62
2023/04/26 01:49:06;;;;;;;8.50;5.32;;;;;;;;;;5024707;28;20165;-62
2023/04/26 01:51:33;;;;;;;7.15;4.53;;;;;;;;;;5024681;28;20018;-62
2023/04/26 01:53:58;;;;;;;6.78;5.10;;;;;;;;;;5025130;28;20026;-62
2023/04/26 01:56:23;;;;;;;6.93;5.03;;;;;;;;;;5028585;28;20037;-62
2023/04/26 01:58:49;;;;;;;11.30;5.97;;;;;;;;;;5028442;28;20072;-62
2023/04/26 02:01:14;;;;;;;12.38;4.63;;;;;;;;;;5028383;28;20385;-62
2023/04/26 02:03:40;;;;;;;11.27;5.22;;;;;;;;;;5028370;28;20037;-61
2023/04/26 02:06:05;;;;;;;8.75;5.55;;;;;;;;;;5028527;28;20022;-62
2023/04/26 02:08:30;;;;;;;8.60;5.50;;;;;;;;;;5028302;28;20060;-63
2023/04/26 02:10:55;;;;;;;8.45;5.50;;;;;;;;;;5058917;28;20025;-62
2023/04/26 02:13:21;;;;;;;9.93;5.30;;;;;;;;;;5028119;28;20572;-62
2023/04/26 02:15:47;;;;;;;8.88;5.57;;;;;;;;;;5028132;28;20460;-62
2023/04/26 02:18:12;;;;;;;8.82;5.35;;;;;;;;;;5027772;28;20037;-62
2023/04/26 02:20:42;;;;;;;9.25;6.00;;;;;;;;;;5027732;28;20136;-62
2023/04/26 02:23:07;;;;;;;11.20;5.63;;;;;;;;;;5028314;28;20056;-62
2023/04/26 02:25:32;;;;;;;13.30;6.90;;;;;;;;;;5027719;28;20450;-61
2023/04/26 02:27:58;;;;;;;10.15;6.03;;;;;;;;;;5027578;28;20140;-62
2023/04/26 02:30:23;;;;;;;8.88;5.95;;;;;;;;;;5027850;28;20456;-62
2023/04/26 02:32:48;;;;;;;10.90;6.22;;;;;;;;;;5026473;28;20131;-63
2023/04/26 02:35:14;;;;;;;10.35;6.55;;;;;;;;;;5041441;28;20044;-60
2023/04/26 02:37:39;;;;;;;9.77;6.80;;;;;;;;;;5027455;28;20264;-62
2023/04/26 02:40:05;;;;;;;13.13;6.57;;;;;;;;;;5041793;28;20037;-62
2023/04/26 02:42:30;;;;;;;9.55;6.63;;;;;;;;;;5028025;28;20022;-61
2023/04/26 02:44:55;;;;;;;10.15;7.15;;;;;;;;;;5027371;28;20079;-62
2023/04/26 02:47:21;;;;;;;9.98;6.20;;;;;;;;;;5027716;28;20101;-61
2023/04/26 02:49:46;;;;;;;10.65;6.70;;;;;;;;;;5027466;28;20029;-63
2023/04/26 02:52:11;;;;;;;11.00;6.70;;;;;;;;;;5027411;28;20033;-62
2023/04/26 02:54:37;;;;;;;11.32;6.75;;;;;;;;;;5027400;28;20053;-62
2023/04/26 02:57:02;;;;;;;8.52;6.03;;;;;;;;;;5026991;28;20022;-62
2023/04/26 02:59:27;;;;;;;8.45;6.10;;;;;;;;;;5026806;28;20132;-62
2023/04/26 03:01:53;;;;;;;11.02;6.28;;;;;;;;;;5027165;28;20152;-62
2023/04/26 03:04:18;;;;;;;12.00;6.70;;;;;;;;;;5027039;28;20469;-62
2023/04/26 03:06:43;;;;;;;9.45;6.50;;;;;;;;;;5026312;28;20025;-61
2023/04/26 03:09:08;;;;;;;10.00;6.43;;;;;;;;;;5027367;28;20100;-62
2023/04/26 03:11:34;;;;;;;9.77;6.72;;;;;;;;;;5026844;28;20018;-62
2023/04/26 03:13:59;;;;;;;10.82;6.72;;;;;;;;;;5026989;28;20049;-62
2023/04/26 03:16:26;;;;;;;9.23;6.78;;;;;;;;;;5026833;28;20022;-62
2023/04/26 03:18:52;;;;;;;13.80;7.30;;;;;;;;;;5025539;28;20523;-62
2023/04/26 03:21:18;;;;;;;10.30;6.10;;;;;;;;;;5008990;28;20067;-62
2023/04/26 03:23:43;;;;;;;14.10;6.95;;;;;;;;;;5026536;28;20030;-61
2023/04/26 03:26:08;;;;;;;9.60;6.55;;;;;;;;;;5026319;28;20053;-62
2023/04/26 03:28:34;;;;;;;11.88;7.20;;;;;;;;;;5026564;28;20116;-62
2023/04/26 03:31:00;;;;;;;11.13;6.25;;;;;;;;;;5063325;28;20050;-62
2023/04/26 03:33:25;;;;;;;14.93;6.85;;;;;;;;;;5063563;28;20060;-62
2023/04/26 03:35:51;;;;;;;10.70;6.90;;;;;;;;;;5063471;28;20146;-62
2023/04/26 03:38:16;;;;;;;11.13;6.90;;;;;;;;;;5062836;28;20067;-62
2023/04/26 03:40:41;;;;;;;10.48;6.75;;;;;;;;;;5063427;28;20031;-62
2023/04/26 03:43:07;;;;;;;10.02;6.75;;;;;;;;;;5063070;28;20405;-61
2023/04/26 03:45:32;;;;;;;10.25;7.13;;;;;;;;;;5063263;28;20629;-62
2023/04/26 03:47:57;;;;;;;11.18;6.75;;;;;;;;;;5063201;28;20051;-62
2023/04/26 03:50:23;;;;;;;8.80;5.93;;;;;;;;;;5063532;28;20824;-63
2023/04/26 03:52:48;;;;;;;11.10;6.70;;;;;;;;;;5063448;28;20025;-63
2023/04/26 03:55:13;;;;;;;8.43;5.78;;;;;;;;;;5063185;28;20669;-62
2023/04/26 03:57:38;;;;;;;8.60;5.70;;;;;;;;;;5063534;28;20036;-68
2023/04/26 04:00:10;;;;;;;10.20;6.05;;;;;;;;;;5062801;28;20170;-62
2023/04/26 04:02:35;;;;;;;10.05;6.45;;;;;;;;;;5035803;28;20492;-63
2023/04/26 04:05:01;;;;;;;12.27;6.60;;;;;;;;;;5026220;28;20060;-61
2023/04/26 04:07:26;;;;;;;8.90;5.60;;;;;;;;;;5025883;28;20018;-63
2023/04/26 04:09:51;;;;;;;9.95;6.30;;;;;;;;;;5025827;28;20025;-63
2023/04/26 04:12:16;;;;;;;7.90;5.47;;;;;;;;;;5025909;28;20052;-63
2023/04/26 04:14:42;;;;;;;8.60;6.05;;;;;;;;;;5026255;28;20124;-62
2023/04/26 04:17:07;;;;;;;12.98;5.70;;;;;;;;;;5025557;28;20033;-62
2023/04/26 04:19:32;;;;;;;8.52;5.70;;;;;;;;;;5024950;28;20679;-62
2023/04/26 04:21:58;;;;;;;10.93;5.97;;;;;;;;;;5025927;28;20024;-60
2023/04/26 04:24:23;;;;;;;8.07;5.05;;;;;;;;;;5025599;28;20029;-61
2023/04/26 04:26:48;;;;;;;9.73;4.90;;;;;;;;;;5025457;28;20124;-62
2023/04/26 04:29:14;;;;;;;7.57;5.10;;;;;;;;;;5025517;28;20025;-62
2023/04/26 04:31:40;;;;;;;11.30;5.15;;;;;;;;;;5024325;28;20389;-61
2023/04/26 04:34:05;;;;;;;8.30;5.20;;;;;;;;;;5025270;28;20021;-62
2023/04/26 04:36:31;;;;;;;10.27;5.10;;;;;;;;;;5022117;28;20471;-61
2023/04/26 04:38:57;;;;;;;8.07;4.97;;;;;;;;;;5022283;28;20045;-61
2023/04/26 04:41:22;;;;;;;9.20;5.32;;;;;;;;;;5022137;28;20025;-61
2023/04/26 04:43:47;;;;;;;7.10;4.93;;;;;;;;;;5022504;28;20021;-61
2023/04/26 04:46:13;;;;;;;7.43;4.53;;;;;;;;;;5021747;28;20554;-61
2023/04/26 04:48:38;;;;;;;8.20;4.65;;;;;;;;;;5022203;28;20051;-63
2023/04/26 04:51:03;;;;;;;8.77;5.15;;;;;;;;;;5022410;28;20492;-62
2023/04/26 04:53:29;;;;;;;9.05;5.30;;;;;;;;;;5022265;28;20401;-62
2023/04/26 04:55:54;;;;;;;11.63;5.90;;;;;;;;;;5022404;28;20033;-63
2023/04/26 04:58:21;;;;;;;11.27;5.38;;;;;;;;;;5022064;28;20033;-61
2023/04/26 05:00:46;;;;;;;8.88;4.78;;;;;;;;;;5021954;28;20029;-63
2023/04/26 05:03:12;;;;;;;8.10;4.47;;;;;;;;;;5041586;28;20029;-63
2023/04/26 05:05:38;;;;;;;6.13;4.32;;;;;;;;;;5041814;28;20063;-60
2023/04/26 05:08:03;;;;;;;7.78;4.50;;;;;;;;;;5041553;28;20047;-62
2023/04/26 05:10:28;;;;;;;7.97;4.40;;;;;;;;;;5025007;28;20476;-62
2023/04/26 05:12:54;;;;;;;8.02;3.83;;;;;;;;;;5041479;28;20413;-62
2023/04/26 05:15:19;;;;;;;6.68;3.78;;;;;;;;;;5041753;28;20025;-62
2023/04/26 05:17:45;;;;;;;8.85;4.22;;;;;;;;;;5041711;28;20033;-62
2023/04/26 05:20:10;;;;;;;9.40;3.80;;;;;;;;;;5041553;28;20518;-62
2023/04/26 05:22:36;;;;;;;7.95;3.65;;;;;;;;;;5041543;28;20036;-61
2023/04/26 05:25:01;;;;;;;7.15;3.67;;;;;;;;;;5041768;28;20022;-63
2023/04/26 05:27:27;;;;;;;8.48;3.88;;;;;;;;;;5041743;28;20103;-62
2023/04/26 05:29:53;;;;;;;6.53;3.30;;;;;;;;;;5041278;28;20467;-62
2023/04/26 05:32:18;;;;;;;4.93;3.13;;;;;;;;;;5041635;28;20091;-62
2023/04/26 05:34:43;;;;;;;6.32;3.28;;;;;;;;;;5029453;28;20030;-62
2023/04/26 05:37:08;;;;;;;6.50;3.22;;;;;;;;;;5023914;28;20042;-62
2023/04/26 05:39:35;;;;;;;5.95;3.15;;;;;;;;;;5023044;28;20038;-62
2023/04/26 05:42:02;;;;;;;7.43;2.80;;;;;;;;;;5024016;28;20036;-62
2023/04/26 05:44:27;;;;;;;5.03;2.95;;;;;;;;;;5044249;28;20437;-62
2023/04/26 05:46:52;;;;;;;4.30;2.60;;;;;;;;;;5028786;28;20024;-62
2023/04/26 05:49:18;;;;;;;7.25;2.55;;;;;;;;;;5028358;28;20052;-60
2023/04/26 05:51:43;;;;;;;5.82;2.67;;;;;;;;;;5024491;28;20323;-61
2023/04/26 05:54:08;;;;;;;4.72;2.58;;;;;;;;;;5026868;28;20404;-61
2023/04/26 05:56:34;;;;;;;4.97;2.72;;;;;;;;;;5024414;28;20036;-62
2023/04/26 05:58:59;;;;;;;6.43;2.67;;;;;;;;;;5025278;28;20025;-62
2023/04/26 06:01:24;;;;;;;5.80;2.80;;;;;;;;;;5029474;28;20115;-62
2023/04/26 06:03:50;;;;;;;7.80;2.60;;;;;;;;;;5024023;28;20053;-60
2023/04/26 06:06:15;;;;;;;4.00;2.58;;;;;;;;;;5027071;28;20523;-62
2023/04/26 06:08:41;;;;;;;5.53;2.63;;;;;;;;;;5011365;28;20420;-63
2023/04/26 06:11:06;;;;;;;8.77;3.03;;;;;;;;;;5011473;28;20020;-62
2023/04/26 06:13:32;;;;;;;2.88;2.13;;;;;;;;;;5011820;28;20017;-62
2023/04/26 06:15:58;;;;;;;6.43;2.95;;;;;;;;;;5014896;28;20167;-60
2023/04/26 06:18:23;;;;;;;8.02;2.40;;;;;;;;;;5023540;28;20065;-60
2023/04/26 06:20:49;;;;;;;4.70;2.33;;;;;;;;;;5015160;28;20056;-61
2023/04/26 06:23:15;;;;;;;8.90;2.78;;;;;;;;;;5019677;28;20340;-60
2023/04/26 06:25:43;;;;;;;12.32;2.33;;;;;;;;;;5016495;28;20017;-62
2023/04/26 06:28:09;;;;;;;6.15;2.40;;;;;;;;;;5030853;28;20025;-60
2023/04/26 06:30:34;;;;;;;5.32;2.67;;;;;;;;;;5033856;28;20112;-61
2023/04/26 06:32:59;;;;;;;5.85;2.85;;;;;;;;;;5005221;28;20021;-61
2023/04/26 06:35:25;;;;;;;9.57;3.15;;;;;;;;;;5007129;28;20104;-58
2023/04/26 06:37:50;;;;;;;6.82;2.50;;;;;;;;;;5012104;28;20336;-60
2023/04/26 06:40:16;;;;;;;8.75;3.03;;;;;;;;;;5012727;28;20558;-60
2023/04/26 06:42:41;;;;;;;7.13;3.00;;;;;;;;;;5015306;28;20527;-59
2023/04/26 06:45:07;;;;;;;8.88;3.00;;;;;;;;;;5012656;28;20037;-63
2023/04/26 06:47:32;;;;;;;5.90;2.47;;;;;;;;;;5017006;28;20029;-60
2023/04/26 06:49:58;;;;;;;8.82;3.03;;;;;;;;;;5017886;28;20052;-61
2023/04/26 06:52:23;;;;;;;6.07;2.58;;;;;;;;;;5015585;28;20037;-61
2023/04/26 06:54:48;;;;;;;7.75;2.90;;;;;;;;;;5020992;28;20377;-61
2023/04/26 06:57:14;;;;;;;6.78;2.40;;;;;;;;;;5017714;28;20087;-61
2023/04/26 06:59:39;;;;;;;9.60;2.38;;;;;;;;;;5024646;28;20056;-61
2023/04/26 07:02:05;;;;;;;10.20;2.67;;;;;;;;;;5016595;28;20030;-60
2023/04/26 07:04:30;;;;;;;5.72;2.58;;;;;;;;;;5022350;28;20099;-62
2023/04/26 07:06:56;;;;;;;5.10;2.23;;;;;;;;;;5012093;28;20533;-59
2023/04/26 07:09:22;;;;;;;7.55;2.47;;;;;;;;;;5014560;28;20548;-58
2023/04/26 07:11:47;;;;;;;5.88;2.35;;;;;;;;;;5010428;28;20485;-62
2023/04/26 07:14:12;;;;;;;6.43;2.47;;;;;;;;;;5015211;28;20805;-62
2023/04/26 07:16:37;;;;;;;7.80;2.55;;;;;;;;;;5046406;28;20042;-60
2023/04/26 07:19:03;;;;;;;6.93;2.63;;;;;;;;;;5021888;28;20163;-61
2023/04/26 07:21:28;;;;;;;9.63;2.50;;;;;;;;;;5021012;28;20805;-60
2023/04/26 07:23:54;;;;;;;7.73;2.27;;;;;;;;;;5018733;28;20963;-60
2023/04/26 07:26:19;;;;;;;6.25;2.38;;;;;;;;;;5012612;28;20263;-63
2023/04/26 07:28:45;;;;;;;2.67;1.60;;;;;;;;;;5024203;28;20021;-61
2023/04/26 07:31:10;;;;;;;6.00;2.10;;;;;;;;;;5020318;28;20026;-63
2023/04/26 07:33:35;;;;;;;7.40;2.20;;;;;;;;;;5027594;28;20025;-62
2023/04/26 07:36:01;;;;;;;6.45;2.67;;;;;;;;;;5033614;28;20116;-58
2023/04/26 07:38:26;;;;;;;9.27;2.33;;;;;;;;;;5027857;28;20049;-61
2023/04/26 07:40:51;;;;;;;7.22;2.03;;;;;;;;;;5019398;28;20346;-61
2023/04/26 07:43:17;;;;;;;9.77;2.00;;;;;;;;;;5029972;28;20432;-61
2023/04/26 07:45:43;;;;;;;6.10;2.15;;;;;;;;;;5018470;28;20635;-63
2023/04/26 07:48:08;;;;;;;7.83;2.03;;;;;;;;;;5041281;28;20032;-63
2023/04/26 07:50:33;;;;;;;5.10;2.00;;;;;;;;;;5014151;28;20600;-61
2023/04/26 07:52:59;;;;;;;6.37;2.10;;;;;;;;;;5014809;28;20026;-61
2023/04/26 07:55:24;;;;;;;7.50;2.63;;;;;;;;;;5013759;28;20345;-60
2023/04/26 07:57:50;;;;;;;6.57;2.00;;;;;;;;;;5030915;28;20028;-61
2023/04/26 08:00:16;;;;;;;5.50;1.98;;;;;;;;;;5018249;28;20668;-58
2023/04/26 08:02:41;;;;;;;8.20;2.20;;;;;;;;;;5019283;28;21005;-60
2023/04/26 08:05:06;;;;;;;6.47;2.58;;;;;;;;;;5023108;28;20038;-62
2023/04/26 08:07:32;;;;;;;7.93;3.20;;;;;;;;;;5010463;28;20026;-61
2023/04/26 08:09:57;;;;;;;9.40;2.60;;;;;;;;;;5012880;28;20026;-60
2023/04/26 08:12:22;;;;;;;17.80;3.47;;;;;;;;;;5021445;28;21023;-58
2023/04/26 08:14:48;;;;;;;13.67;3.43;;;;;;;;;;5037464;28;20469;-60
2023/04/26 08:17:13;;;;;;;8.15;2.30;;;;;;;;;;5018385;28;20305;-62
2023/04/26 08:19:38;;;;;;;6.35;2.00;;;;;;;;;;5017050;28;20064;-60
2023/04/26 08:22:04;;;;;;;4.70;2.47;;;;;;;;;;5017196;28;20049;-61
2023/04/26 08:24:30;;;;;;;11.93;2.65;;;;;;;;;;5017577;28;20262;-60
2023/04/26 08:26:57;;;;;;;4.78;1.92;;;;;;;;;;5013955;28;20033;-60
2023/04/26 08:29:22;;;;;;;4.13;1.83;;;;;;;;;;5016915;28;20026;-62
2023/04/26 08:31:47;;;;;;;14.02;2.35;;;;;;;;;;5059121;28;20037;-60
2023/04/26 08:34:13;;;;;;;20.90;3.95;;;;;;;;;;5016563;28;20022;-63
2023/04/26 08:36:41;;;;;;;6.33;2.30;;;;;;;;;;5015652;28;20505;-61
2023/04/26 08:39:07;;;;;;;9.75;2.45;;;;;;;;;;5017894;28;20288;-62
2023/04/26 08:41:35;;;;;;;4.13;1.80;;;;;;;;;;5015944;28;20026;-61
2023/04/26 08:44:04;;;;;;;4.28;2.38;;;;;;;;;;5011179;28;20034;-60
2023/04/26 08:46:32;;;;;;;4.37;1.70;;;;;;;;;;5010240;28;20021;-63
2023/04/26 08:49:36;;;;;;;9.77;2.47;;;;;;;;;;5020014;28;20014;-65
2023/04/26 08:52:03;;;;;;;5.72;1.90;;;;;;;;;;4990267;28;20038;-61
2023/04/26 08:54:29;;;;;;;6.05;2.05;;;;;;;;;;4988987;28;20068;-62
2023/04/26 08:56:57;;;;;;;11.57;2.85;;;;;;;;;;4989011;28;20117;-61
2023/04/26 08:59:22;;;;;;;8.20;2.67;;;;;;;;;;4992577;28;20046;-63
2023/04/26 09:01:48;;;;;;;8.15;1.98;;;;;;;;;;4992176;28;20484;-59
2023/04/26 09:04:13;;;;;;;8.90;2.40;;;;;;;;;;4987236;28;20035;-60
2023/04/26 09:06:39;;;;;;;7.70;2.87;;;;;;;;;;4992077;28;20468;-63
2023/04/26 09:09:07;;;;;;;6.78;2.30;;;;;;;;;;4993785;28;20302;-60
2023/04/26 09:11:51;;;;;;;13.43;2.17;;;;;;;;;;4997168;28;20181;-59
2023/04/26 09:14:16;;;;;;;10.23;2.50;;;;;;;;;;4993575;28;20045;-58
2023/04/26 09:16:42;;;;;;;10.90;2.80;;;;;;;;;;4956400;28;20034;-65
2023/04/26 09:19:07;;;;;;;12.93;2.63;;;;;;;;;;4987541;28;20116;-67
2023/04/26 09:21:32;;;;;;;4.73;2.50;;;;;;;;;;4993135;28;20029;-67
2023/04/26 09:23:58;;;;;;;5.22;2.15;;;;;;;;;;5014562;28;20083;-64
2023/04/26 09:26:23;;;;;;;9.45;2.22;;;;;;;;;;5017006;28;20532;-65
2023/04/26 09:28:49;;;;;;;11.85;2.83;;;;;;;;;;5001585;28;20041;-64
2023/04/26 09:31:33;;;;;;;12.52;2.28;;;;;;;;;;5005730;28;20037;-64
2023/04/26 09:33:58;;;;;;;6.55;2.38;;;;;;;;;;5017174;28;20044;-67
2023/04/26 09:36:24;;;;;;;8.52;2.67;;;;;;;;;;5014352;28;20072;-66
2023/04/26 09:38:49;;;;;;;7.88;2.40;;;;;;;;;;5014105;28;20411;-64
2023/04/26 09:41:14;;;;;;;9.20;3.07;;;;;;;;;;5012864;28;20113;-65
2023/04/26 09:43:40;;;;;;;5.63;2.15;;;;;;;;;;5022417;28;20725;-62
2023/04/26 09:46:06;;;;;;;7.15;2.25;;;;;;;;;;5021846;28;20025;-65
2023/04/26 09:48:34;;;;;;;7.20;2.25;;;;;;;;;;5022972;28;20029;-65
2023/04/26 09:51:02;;;;;;;10.40;3.63;;;;;;;;;;5009361;28;20036;-64
2023/04/26 09:53:27;;;;;;;7.07;2.35;;;;;;;;;;5007270;28;20041;-62
2023/04/26 09:55:53;;;;;;;6.22;1.85;;;;;;;;;;5013188;28;20462;-63
2023/04/26 09:58:19;;;;;;;7.20;1.92;;;;;;;;;;5003612;28;20641;-64
2023/04/26 10:00:46;;;;;;;10.18;2.15;;;;;;;;;;5014333;28;20036;-63
2023/04/26 10:03:11;;;;;;;7.00;2.15;;;;;;;;;;5021509;28;20022;-64
2023/04/26 10:05:37;;;;;;;7.95;2.10;;;;;;;;;;5008400;28;20433;-66
2023/04/26 10:08:02;;;;;;;7.50;2.47;;;;;;;;;;5018499;28;20590;-65
2023/04/26 10:10:29;;;;;;;6.50;2.47;;;;;;;;;;5019626;28;20393;-64
2023/04/26 10:12:54;;;;;;;4.70;2.60;;;;;;;;;;5015269;28;20395;-62
2023/04/26 10:15:19;;;;;;;9.20;2.47;;;;;;;;;;5008478;28;20246;-64
2023/04/26 10:17:45;;;;;;;4.90;2.08;;;;;;;;;;5021898;28;20028;-60
2023/04/26 10:20:12;;;;;;;12.27;3.00;;;;;;;;;;5027291;28;20540;-61
2023/04/26 10:22:42;;;;;;;9.75;2.63;;;;;;;;;;5023445;28;20320;-61
2023/04/26 10:25:08;;;;;;;5.38;2.15;;;;;;;;;;5019147;28;20042;-63
2023/04/26 10:27:42;;;;;;;6.55;2.30;;;;;;;;;;5021455;28;20488;-63
2023/04/26 10:30:08;;;;;;;7.45;2.53;;;;;;;;;;5022699;28;20049;-61
2023/04/26 10:32:54;;;;;;;13.60;1.98;;;;;;;;;;5023430;28;20400;-65
2023/04/26 10:35:20;;;;;;;6.13;2.08;;;;;;;;;;5010760;28;20025;-63
2023/04/26 10:38:12;;;;;;;6.60;2.25;;;;;;;;;;5023318;28;20049;-63
2023/04/26 10:40:38;;;;;;;6.72;2.08;;;;;;;;;;5021510;28;20042;-63
2023/04/26 10:43:15;;;;;;;4.47;2.55;;;;;;;;;;5023936;28;20072;-63
2023/04/26 10:45:47;;;;;;;7.70;1.77;;;;;;;;;;5023816;28;20033;-63
2023/04/26 10:48:12;;;;;;;7.15;2.10;;;;;;;;;;5026610;28;20022;-63
2023/04/26 10:51:00;;;;;;;6.07;2.07;;;;;;;;;;5004876;28;20030;-62
2023/04/26 10:53:26;;;;;;;10.18;2.10;;;;;;;;;;4981453;28;20295;-62
2023/04/26 10:55:52;;;;;;;6.65;2.20;;;;;;;;;;4979244;28;20057;-62
2023/04/26 10:58:33;;;;;;;8.10;2.00;;;;;;;;;;4978647;28;20038;-62
2023/04/26 11:01:12;;;;;;;13.48;3.70;;;;;;;;;;4978976;28;20031;-61
2023/04/26 11:03:39;;;;;;;5.70;2.20;;;;;;;;;;4977012;28;20190;-63
2023/04/26 11:06:08;;;;;;;4.85;1.83;;;;;;;;;;4972267;28;20092;-64
2023/04/26 11:08:35;;;;;;;;;;;;;;;;;;4981063;28;20014;-63
2023/04/26 11:11:03;;;;;;;5.13;1.63;;;;;;;;;;4978580;28;19913;-63
2023/04/26 11:13:32;;;;;;;6.55;1.98;;;;;;;;;;4976088;28;20038;-63
2023/04/26 11:16:04;;;;;;;8.52;2.20;;;;;;;;;;4978969;28;20022;-64
2023/04/26 11:18:33;;;;;;;8.15;2.03;;;;;;;;;;4997649;28;20046;-65
2023/04/26 11:20:58;;;;;;;7.68;1.77;;;;;;;;;;4989550;28;20026;-61
2023/04/26 11:23:24;;;;;;;7.50;2.13;;;;;;;;;;5001453;28;20435;-60
2023/04/26 11:25:50;;;;;;;7.32;2.83;;;;;;;;;;4999913;28;20033;-62
2023/04/26 11:28:17;;;;;;;5.20;2.03;;;;;;;;;;4991687;28;20112;-58
2023/04/26 11:30:42;;;;;;;6.80;1.90;;;;;;;;;;5006031;28;20034;-60
2023/04/26 11:33:15;;;;;;;4.93;1.95;;;;;;;;;;5025105;28;20025;-60
2023/04/26 11:35:40;;;;;;;41.20;6.22;;;;;;;;;;5016517;28;20049;-61
2023/04/26 11:38:06;;;;;;;12.38;3.30;;;;;;;;;;5018662;28;20080;-62
2023/04/26 11:40:32;;;;;;;14.27;4.15;;;;;;;;;;5025655;28;20025;-59
2023/04/26 11:43:01;;;;;;;10.27;2.50;;;;;;;;;;5012123;28;20674;-60
2023/04/26 11:45:26;;;;;;;4.93;1.98;;;;;;;;;;5015391;28;20664;-58
2023/04/26 11:47:52;;;;;;;14.50;2.88;;;;;;;;;;5015439;28;20010;-58
2023/04/26 11:50:17;;;;;;;5.18;1.92;;;;;;;;;;5011644;28;20029;-58
2023/04/26 11:52:43;;;;;;;13.55;3.05;;;;;;;;;;5020069;28;20120;-57
2023/04/26 11:55:09;;;;;;;5.72;1.83;;;;;;;;;;5020124;28;20732;-61
2023/04/26 11:57:34;;;;;;;7.82;1.80;;;;;;;;;;5021486;28;20024;-59
2023/04/26 12:00:10;;;;;;;8.95;1.73;;;;;;;;;;5020117;28;20537;-63
2023/04/26 12:02:35;;;;;;;7.38;2.13;;;;;;;;;;5014235;28;20024;-63
2023/04/26 12:05:02;;;;;;;8.75;2.72;;;;;;;;;;5026319;28;20166;-65
2023/04/26 12:07:31;;;;;;;9.80;1.92;;;;;;;;;;5022558;28;20026;-64
2023/04/26 12:09:57;;;;;;;6.05;1.90;;;;;;;;;;5005268;28;20088;-64
2023/04/26 12:12:22;;;;;;;4.87;1.80;;;;;;;;;;5008338;28;20017;-64
2023/04/26 12:14:47;;;;;;;8.43;2.63;;;;;;;;;;5014100;28;20271;-63
2023/04/26 12:17:13;;;;;;;8.93;3.15;;;;;;;;;;5009958;28;20025;-64
2023/04/26 12:19:39;;;;;;;3.95;1.75;;;;;;;;;;5024596;28;20026;-64
2023/04/26 12:22:05;;;;;;;7.43;2.05;;;;;;;;;;5041202;28;20030;-62
2023/04/26 12:24:37;;;;;;;9.73;2.17;;;;;;;;;;5014880;28;20025;-63
2023/04/26 12:27:05;;;;;;;4.35;1.65;;;;;;;;;;5017511;28;20025;-62
2023/04/26 12:29:30;;;;;;;2.88;1.50;;;;;;;;;;5024145;28;20128;-62
2023/04/26 12:31:56;;;;;;;2.67;1.40;;;;;;;;;;5025642;28;20108;-64
2023/04/26 12:34:22;;;;;;;11.55;2.15;;;;;;;;;;5016141;28;20027;-60
2023/04/26 12:36:47;;;;;;;8.55;2.17;;;;;;;;;;5023837;28;20037;-60
2023/04/26 12:39:14;;;;;;;9.43;2.13;;;;;;;;;;5006553;28;20572;-61
2023/04/26 12:41:42;;;;;;;3.97;1.70;;;;;;;;;;5011668;28;20129;-60
2023/04/26 12:44:08;;;;;;;6.03;1.33;;;;;;;;;;5043024;28;20076;-57
2023/04/26 12:46:34;;;;;;;4.95;1.77;;;;;;;;;;5014398;28;20072;-63
2023/04/26 12:48:59;;;;;;;7.07;2.65;;;;;;;;;;5023298;28;20863;-63
2023/04/26 12:51:25;;;;;;;4.03;1.50;;;;;;;;;;5014214;28;20018;-63
2023/04/26 12:53:51;;;;;;;6.68;2.35;;;;;;;;;;5017707;28;20092;-62
2023/04/26 12:56:16;;;;;;;6.70;1.80;;;;;;;;;;5009490;28;20056;-62
2023/04/26 12:58:41;;;;;;;3.20;1.60;;;;;;;;;;5020146;28;20033;-61
2023/04/26 13:01:07;;;;;;;4.28;1.80;;;;;;;;;;5017353;28;20029;-63
2023/04/26 13:03:32;;;;;;;8.23;1.67;;;;;;;;;;5018066;28;20025;-63
2023/04/26 13:05:57;;;;;;;6.03;1.93;;;;;;;;;;5004881;28;20053;-61
2023/04/26 13:08:23;;;;;;;7.93;1.63;;;;;;;;;;5013992;28;20965;-63
2023/04/26 13:10:48;;;;;;;11.10;1.85;;;;;;;;;;5028327;28;20036;-62
2023/04/26 13:13:14;;;;;;;6.00;1.60;;;;;;;;;;5010769;28;20018;-65
2023/04/26 13:15:39;;;;;;;8.48;1.92;;;;;;;;;;5008450;28;20029;-67
2023/04/26 13:18:04;;;;;;;6.03;1.70;;;;;;;;;;5031227;28;20071;-59
2023/04/26 13:20:30;;;;;;;5.68;2.00;;;;;;;;;;5033114;28;20039;-62
2023/04/26 13:22:55;;;;;;;9.68;1.90;;;;;;;;;;5014105;28;20068;-58
2023/04/26 13:25:21;;;;;;;6.03;2.28;;;;;;;;;;5015359;28;20033;-60
2023/04/26 13:27:46;;;;;;;4.65;1.55;;;;;;;;;;5016148;28;20443;-58
2023/04/26 13:30:12;;;;;;;4.80;1.80;;;;;;;;;;5017182;28;20029;-58
2023/04/26 13:32:37;;;;;;;9.85;1.70;;;;;;;;;;5014449;28;20045;-56
2023/04/26 13:35:03;;;;;;;8.02;1.73;;;;;;;;;;5012041;28;20384;-60
2023/04/26 13:37:28;;;;;;;3.83;1.52;;;;;;;;;;5018190;28;20517;-59
2023/04/26 13:39:53;;;;;;;14.07;2.72;;;;;;;;;;5014851;28;20070;-59
2023/04/26 13:42:19;;;;;;;3.05;1.55;;;;;;;;;;5012515;28;20026;-57
2023/04/26 13:44:45;;;;;;;5.18;1.50;;;;;;;;;;5033829;28;20040;-61
2023/04/26 13:47:10;;;;;;;3.03;1.60;;;;;;;;;;5011656;28;20030;-61
2023/04/26 13:49:36;;;;;;;6.68;1.60;;;;;;;;;;5016987;28;20021;-59
2023/04/26 13:52:01;;;;;;;12.50;2.30;;;;;;;;;;5004548;28;20516;-57
2023/04/26 13:54:26;;;;;;;8.95;1.52;;;;;;;;;;5006860;28;20021;-60
2023/04/26 13:56:52;;;;;;;7.20;1.70;;;;;;;;;;5012287;28;20576;-61
2023/04/26 13:59:17;;;;;;;4.50;1.70;;;;;;;;;;5007550;28;20034;-65
2023/04/26 14:01:43;;;;;;;4.78;2.05;;;;;;;;;;5011685;28;20037;-58
2023/04/26 14:04:08;;;;;;;5.47;1.50;;;;;;;;;;5001451;28;20087;-63
2023/04/26 14:06:34;;;;;;;5.63;1.80;;;;;;;;;;5009708;28;20028;-60
2023/04/26 14:09:00;;;;;;;4.38;1.60;;;;;;;;;;5024084;28;20333;-61
2023/04/26 14:11:25;;;;;;;8.95;1.95;;;;;;;;;;5015036;28;20371;-61
2023/04/26 14:13:54;;;;;;;6.93;1.70;;;;;;;;;;5018957;28;20025;-64
2023/04/26 14:16:20;;;;;;;9.10;1.67;;;;;;;;;;5014384;28;20029;-63
2023/04/26 14:18:46;;;;;;;3.72;1.38;;;;;;;;;;5004514;28;20037;-65
2023/04/26 14:21:11;;;;;;;5.43;1.52;;;;;;;;;;5006407;28;20055;-62
2023/04/26 14:23:37;;;;;;;6.53;1.65;;;;;;;;;;5027007;28;20017;-62
2023/04/26 14:26:02;;;;;;;10.10;1.38;;;;;;;;;;5004988;28;20440;-63
2023/04/26 14:28:28;;;;;;;4.28;1.38;;;;;;;;;;5061148;28;20464;-61
2023/04/26 14:30:53;;;;;;;5.40;1.70;;;;;;;;;;5016509;28;20997;-62
2023/04/26 14:33:18;;;;;;;549.17;490.90;;;;;;;;;;5013593;28;20295;-62
2023/04/26 14:35:43;;;;;;;202.77;189.85;;;;;;;;;;5010227;28;20445;-63